Aktualne dane pomiarowe

Uwaga, wersja testowa! Automatyczne pobieranie danych za pomocą narzędzi lub skryptów to umożliwiających jest zabronione.

Dane meteo z obszaru Polski uzyskane na podstawie depesz SYNOP pobieranych co godzinę z NWS. Najedź myszką na symbol przedstawiony w tabeli, aby uzyskać informacje co do jego znaczenia. Prosimy pamiętać, że to testowa wersja strony, która jeszcze nie jest ukończona. Stworzono również jest krótki FAQ dotyczący korzystania z tej podstrony Anomalie temperatury w chwili obecnej odniesione są do okresu referencyjnego 1951-2016. Okres ten będzie później zmieniony na 1981-2010. Kliknij ikonę aby pobrać plik CSV. Kliknij ikonę aby wygenerować mapę synoptyczną dla danego terminu.

Wybierz Datę:    

        

Włodawa (12497)

Dane terminowe dla wybranej stacji. Kliknij datę, aby otrzymać dane z tego terminu dla wszystkich stacji.

TemperaturaZachmurzenieWiatrCiśnienieOpadyPogoda
 Data t td wb tx tn tg rh  Nt Nl Cl Cm Ch ws wd g1 g2 wx mslp ppp ch 24h 12h t ww ww w1 w2  
2019-08-08 23:00:00 14.7 12.0 12.9--- 8420.0wxwxwx3wx--31012.7 991.4 0.9----22----
2019-08-08 22:00:00 14.7 11.8 12.7--- 8320.0wx-3wx--31012.6 991.3 1.0----22----
2019-08-08 21:00:00 15.5 11.7 13.0--- 7820.0wx-wx4wx--41012.2 990.9 1.1---------
2019-08-08 20:00:00 16.6 11.7 13.4--- 7320.0wx-wx4wx---1011.7 990.5 1.2---------
2019-08-08 19:00:00 17.7 11.7 13.9--- 6820.0wx-wx4wx--41011.4 990.3 1.1---------
2019-08-08 18:00:00 20.3 11.5 14.9 25.6 17.4- 5720.0wx-wx2wx-1421010.7 989.8 1.0- 0.412------
2019-08-08 17:00:00 23.1 10.8 15.8--- 4620.0wxwxwxwx4wx--41010.0 989.3 0.7---------
2019-08-08 16:00:00 24.4 11.0 16.4--- 4320.0wxwxwxwx7wx---1009.8 989.2 0.9---------
2019-08-08 15:00:00 25.0 11.2 16.7--- 4220.0wxwxwxwx6wx121461009.3 988.8 0.6---------
2019-08-08 14:00:00 25.2 11.4 16.9--- 4220.0wxwxwxwx8wx131481009.1 988.6 1.1---------
2019-08-08 13:00:00 25.1 13.0 17.6--- 4720.0wxwxwxwx9wx-1391008.8 988.3 1.4---------
2019-08-08 12:00:00 23.7 14.7 17.9--- 5720.0wxwxwxwx8wx131581008.8 988.2 2.0- 0.46wx-w1--
2019-08-08 11:00:00 24.0 15.2 18.3--- 5820.0wxwxwxwx7wx121271008.1 987.5 2.1---------
2019-08-08 10:00:00 21.9 15.7 17.8--- 6820.0wxwxwxwxwx8wx141581007.6 986.9 2.2---------
2019-08-08 09:00:00 20.9 17.3 18.4--- 8020.0wxwxwxwx8wx-1381007.0 986.2 2.2---wx-w1--
2019-08-08 08:00:00 19.3 18.3 18.6--- 9420.0wxwxwxwx6wx111261006.3 985.4 0.7---wx---
2019-08-08 07:00:00 18.3 18.0 18.1--- 984.5wxwxwx5wx--51005.6 984.7 1.0---wx---
2019-08-08 06:00:00 17.4 17.1 17.2 18.5 16.7 16 983.9wxwxwx2wx--21005.0 984.0 0.3 16.3 16.012wx-- 5.7
2019-08-08 05:00:00 17.6 17.1 17.2--- 971.9wxwxwx5wx---1005.7 984.7 0.2---wx---
2019-08-08 04:00:00 17.4 17.1 17.2--- 985.0wxwxwxwx3wx---1004.7 983.7 -1.3---wx---
2019-08-08 03:00:00 16.9 16.6 16.7--- 984.0wxwxwxwx2wx--21004.7 983.7 -1.6---wx---
2019-08-08 02:00:00 17.1 16.8 16.9--- 984.0wxwxwxwx2wx--21005.5 984.5 -1.0---wx---
2019-08-08 01:00:00 17.3 17.0 17.1--- 985.0wx-wxwx3wx--31006.0 985.0 -1.0---wx---
2019-08-08 00:00:00 17.3 17.0 17.1--- 985.0wx-wx3wx--31006.3 985.3 -1.2- 0.06wx---
2019-08-07 23:00:00 17.2 16.9 17.0--- 985.0wx-wx3wx--31006.5 985.5 -1.3---wx---
2019-08-07 22:00:00 17.3 17.0 17.1--- 986.0wx-wx3wx--31007.0 986.0 -1.0---wx---
2019-08-07 21:00:00 17.9 17.4 17.5--- 9711.0wxwxwx2wx---1007.5 986.5 -0.1---------
2019-08-07 20:00:00 17.6 17.0 17.2--- 9612.0wxwxwxwx2wx---1007.8 986.8 -0.3---------
2019-08-07 19:00:00 17.8 17.0 17.2--- 9515.0wxwxwxwx2wx---1008.0 987.0 -0.8---------
2019-08-07 18:00:00 18.5 17.3 17.6 28.6 17.9- 9320.0wxwxwxwxwx2wx-1621007.5 986.6 -1.3- 0.112wx-w1--
2019-08-07 17:00:00 19.0 17.8 18.1--- 9320.0wxwxwxwx3wx--31008.0 987.1 -0.7---wx---
2019-08-07 16:00:00 18.8 17.3 17.7--- 9120.0wxwxwx3wx--31008.8 987.8 0.0---wx---
2019-08-07 15:00:00 20.2 15.8 17.2--- 7620.0wxwxwxwx6wx-1661008.8 987.9 -0.1---wx---
2019-08-07 14:00:00 26.0 17.1 20.1--- 5820.0wxwxwxwx3wx---1008.2 987.8 -0.8---------
2019-08-07 13:00:00 27.0 16.6 20.2--- 5320.0wxwxwxwxwx5wx-851008.2 987.8 -0.9---------
2019-08-07 12:00:00 27.0 18.3 21.2--- 5920.0wxwxwxwxwx4wx--41008.4 988.0 -0.6- 0.06------
2019-08-07 11:00:00 25.8 19.0 21.1--- 6620.0wxwxwxwxwx4wx--41009.1 988.6 -0.2---------
2019-08-07 10:00:00 24.7 18.2 20.3--- 6720.0wxwxwxwxwx5wx--51009.3 988.7 -0.1---------
2019-08-07 09:00:00 23.9 18.5 20.2--- 7220.0wxwxwxwxwx5wx---1009.2 988.6 -0.6---------
2019-08-07 08:00:00 22.5 19.1 20.1--- 8120.0wxwxwxwxwx5wx--51009.5 988.8 0.5---------
2019-08-07 07:00:00 19.9 18.0 18.5--- 8920.0wxwxwxwxwx3wx--31009.7 988.8 -0.1---------
2019-08-07 06:00:00 17.9 16.6 17.0 22.8 16.8 15 9220.0wxwxwxwxwx3wx-1231010.2 989.2 0.4 3.8 4.012wx-w1- 11.3
2019-08-07 05:00:00 17.3 15.6 16.1--- 9010.0wxwxwx3wx--31009.4 988.3 0.0---wx-w1--
2019-08-07 04:00:00 17.2 15.5 16.0--- 9020.0wxwxwx4wx---1010.0 988.9 1.0---wx-w1w2--
2019-08-07 03:00:00 18.7 15.9 16.7--- 8415.0wxwxwx7wx--71009.8 988.8 0.1---wx---
2019-08-07 02:00:00 18.2 16.0 16.6--- 8720.0wxwxwxwx3wx--31009.3 988.3 -0.7---wx22--
2019-08-07 01:00:00 17.3 15.3 15.9--- 8820.0wxwxwxwx3wx--31009.0 987.9 -1.2---wx22--
2019-08-07 00:00:00 17.4 14.9 15.7--- 8520.0wx-wxwx2wx--21009.8 988.7 -0.7- 0.06------
6.8 ms

 

Print Friendly, PDF & Email